Time;durP1;ratioP1;P1;durP2;ratioP2;P2;SDS_P1;SDS_P2;PMS_P1;PMS_P2;Temp;Humidity;BMP_temperature;BMP_pressure;BME280_temperature;BME280_humidity;BME280_pressure;Samples;Min_cycle;Max_cycle;Signal;HPM_P1;HPM_P2
2023/04/06 00:00:42;;;;;;;;;25.25;23.75;;;;;14.80;31.52;101205.00;2104843;27;44948;-60
2023/04/06 00:01:42;;;;;;;;;26.50;25.00;;;;;14.81;31.43;101204.09;2084053;28;45440;-62
2023/04/06 00:02:43;;;;;;;;;15.00;14.75;;;;;14.81;31.41;101204.09;2088954;28;44916;-61
2023/04/06 00:03:43;;;;;;;;;27.00;22.00;;;;;14.81;31.54;101202.28;2092010;28;45530;-61
2023/04/06 00:04:44;;;;;;;;;23.75;23.75;;;;;14.81;31.46;101204.97;2103248;28;44795;-61
2023/04/06 00:05:44;;;;;;;;;26.00;23.75;;;;;14.82;31.77;101203.16;2105023;27;44961;-61
2023/04/06 00:06:45;;;;;;;;;29.75;25.00;;;;;14.81;32.08;101202.28;2096688;28;44881;-61
2023/04/06 00:07:45;;;;;;;;;26.25;23.75;;;;;14.80;31.92;101200.53;2094400;28;44996;-61
2023/04/06 00:08:46;;;;;;;;;24.25;24.25;;;;;14.80;32.21;101197.88;2096485;28;45239;-62
2023/04/06 00:09:46;;;;;;;;;26.00;25.00;;;;;14.80;32.22;101195.19;2102315;28;45138;-62
2023/04/06 00:10:46;;;;;;;;;28.00;25.00;;;;;14.81;32.21;101204.09;2098840;27;45009;-62
2023/04/06 00:11:47;;;;;;;;;23.75;21.50;;;;;14.78;32.34;101191.69;2075930;28;45272;-61
2023/04/06 00:12:47;;;;;;;;;28.50;26.75;;;;;14.79;32.47;101195.25;2093642;28;44900;-62
2023/04/06 00:13:48;;;;;;;;;27.25;25.50;;;;;14.78;32.25;101191.69;2101506;27;45024;-61
2023/04/06 00:14:48;;;;;;;;;30.25;28.25;;;;;14.78;32.58;101191.69;2087699;28;45019;-62
2023/04/06 00:15:49;;;;;;;;;30.25;28.00;;;;;14.77;32.57;101189.09;2086531;28;44924;-61
2023/04/06 00:16:49;;;;;;;;;27.75;26.25;;;;;14.77;32.64;101187.28;2088123;28;45000;-61
2023/04/06 00:17:49;;;;;;;;;25.75;24.75;;;;;14.77;32.49;101183.75;2102525;28;44770;-62
2023/04/06 00:18:50;;;;;;;;;26.00;25.25;;;;;14.78;32.75;101197.03;2107197;27;44940;-61
2023/04/06 00:19:50;;;;;;;;;23.25;21.75;;;;;14.76;32.67;101188.22;2101405;28;45031;-60
2023/04/06 00:20:51;;;;;;;;;25.25;25.25;;;;;14.77;33.03;101191.75;2100075;28;45014;-60
2023/04/06 00:21:51;;;;;;;;;28.00;26.25;;;;;14.76;33.16;101196.22;2092907;28;45084;-60
2023/04/06 00:22:51;;;;;;;;;29.25;28.50;;;;;14.76;33.24;101190.88;2102846;28;45149;-60
2023/04/06 00:23:52;;;;;;;;;28.00;25.25;;;;;14.75;33.32;101189.13;2102684;27;45191;-62
2023/04/06 00:24:52;;;;;;;;;31.50;25.25;;;;;14.75;33.12;101189.13;2098227;28;44955;-61
2023/04/06 00:25:52;;;;;;;;;33.25;29.00;;;;;14.76;33.46;101193.56;2095224;28;45062;-61
2023/04/06 00:26:53;;;;;;;;;32.75;29.75;;;;;14.76;33.36;101193.56;2095776;28;44953;-61
2023/04/06 00:27:53;;;;;;;;;27.75;27.75;;;;;14.77;33.85;101189.09;2094663;28;45077;-60
2023/04/06 00:28:53;;;;;;;;;27.00;26.75;;;;;14.77;33.61;101195.31;2105888;27;45012;-60
2023/04/06 00:29:54;;;;;;;;;31.50;30.00;;;;;14.77;33.60;101195.31;2076817;28;44957;-60
2023/04/06 00:30:55;;;;;;;;;29.00;28.00;;;;;14.77;34.11;101194.44;2078994;28;44790;-61
2023/04/06 00:31:55;;;;;;;;;32.00;30.00;;;;;14.76;34.12;101190.88;2093824;28;44892;-61
2023/04/06 00:32:56;;;;;;;;;31.00;28.75;;;;;14.76;34.24;101190.00;2087683;28;44931;-60
2023/04/06 00:33:57;;;;;;;;;30.00;29.75;;;;;14.76;34.37;101192.69;2097533;28;45229;-60
2023/04/06 00:34:58;;;;;;;;;30.00;29.00;;;;;14.76;34.47;101190.88;2095212;28;44867;-61
2023/04/06 00:35:59;;;;;;;;;31.50;30.50;;;;;14.75;34.61;101186.47;2093528;28;45388;-61
2023/04/06 00:36:59;;;;;;;;;33.75;30.50;;;;;14.76;34.59;101184.66;2103294;27;44897;-61
2023/04/06 00:37:59;;;;;;;;;32.50;30.75;;;;;14.75;34.56;101188.25;2102573;27;45002;-61
2023/04/06 00:39:00;;;;;;;;;31.00;29.00;;;;;14.73;34.83;101186.47;2103660;27;44939;-61
2023/04/06 00:40:01;;;;;;;;;28.00;27.50;;;;;14.72;34.73;101184.75;2093876;28;45562;-61
2023/04/06 00:41:03;;;;;;;;;28.75;25.75;;;;;14.72;34.54;101184.75;2089372;28;44928;-62
2023/04/06 00:42:14;;;;;;;;;29.20;27.80;;;;;14.71;34.59;101176.78;2101604;27;44984;-60
2023/04/06 00:43:15;;;;;;;;;30.40;29.40;;;;;14.70;34.80;101175.91;2102813;28;44912;-61
2023/04/06 00:44:15;;;;;;;;;21.50;20.25;;;;;14.70;34.78;101181.25;2100535;28;45087;-61
2023/04/06 00:45:15;;;;;;;;;28.00;28.00;;;;;14.71;35.01;101169.63;2099864;28;44802;-61
2023/04/06 00:46:16;;;;;;;;;32.50;27.75;;;;;14.71;35.11;101174.97;2104032;28;45370;-61
2023/04/06 00:47:16;;;;;;;;;29.00;26.50;;;;;14.70;35.37;101172.34;2103375;28;44774;-61
2023/04/06 00:48:16;;;;;;;;;28.25;27.00;;;;;14.70;35.27;101175.03;2103533;28;45649;-61
2023/04/06 00:49:17;;;;;;;;;30.75;28.75;;;;;14.68;35.18;101172.41;2103374;28;44959;-63
2023/04/06 00:50:17;;;;;;;;;28.75;28.00;;;;;14.67;35.40;101170.66;2100384;28;45550;-61
2023/04/06 00:51:18;;;;;;;;;26.75;26.75;;;;;14.67;35.39;101173.34;2099752;28;45018;-61
2023/04/06 00:52:19;;;;;;;;;32.50;27.50;;;;;14.67;35.59;101168.00;2104053;28;44771;-61
2023/04/06 00:53:19;;;;;;;;;27.60;25.20;;;;;14.66;35.73;101168.91;2103501;28;45172;-61
2023/04/06 00:54:20;;;;;;;;;27.00;26.00;;;;;14.67;35.46;101161.78;2104284;28;44905;-61
2023/04/06 00:55:20;;;;;;;;;28.00;25.25;;;;;14.67;35.69;101165.31;2100928;28;45015;-60
2023/04/06 00:56:21;;;;;;;;;27.25;25.25;;;;;14.68;35.98;101160.84;2104406;28;44893;-62
2023/04/06 00:57:21;;;;;;;;;27.75;26.25;;;;;14.67;36.02;101162.66;2103259;28;45029;-60
2023/04/06 00:58:22;;;;;;;;;31.25;28.50;;;;;14.66;35.78;101157.34;2099204;28;45003;-61
2023/04/06 00:59:22;;;;;;;;;28.50;25.75;;;;;14.65;35.49;101160.94;2099817;28;45242;-61
2023/04/06 01:00:22;;;;;;;;;31.00;26.50;;;;;14.65;36.03;101158.28;2101199;28;44936;-61
2023/04/06 01:01:24;;;;;;;;;29.00;27.75;;;;;14.65;35.84;101155.59;2103020;28;45007;-60
2023/04/06 01:02:25;;;;;;;;;31.20;28.60;;;;;14.64;35.71;101162.75;2077487;28;44946;-60
2023/04/06 01:03:25;;;;;;;;;25.20;25.20;;;;;14.63;36.17;101161.00;2077060;28;45102;-59
2023/04/06 01:04:27;;;;;;;;;24.00;24.00;;;;;14.63;35.88;101155.66;2102193;28;44782;-62
2023/04/06 01:05:27;;;;;;;;;28.80;28.00;;;;;14.64;36.26;101153.88;2103405;28;44889;-61
2023/04/06 01:06:28;;;;;;;;;6.50;3.25;;;;;14.64;36.01;101159.22;2098706;28;44933;-61
2023/04/06 01:07:28;;;;;;;;;16.00;14.50;;;;;14.64;36.32;101159.22;2101694;28;45124;-60
2023/04/06 01:08:29;;;;;;;;;28.25;26.50;;;;;14.63;36.37;101157.47;2097866;28;44949;-60
2023/04/06 01:09:30;;;;;;;;;22.75;21.75;;;;;14.63;36.46;101150.31;2100990;28;44942;-60
2023/04/06 01:10:31;;;;;;;;;29.50;25.25;;;;;14.62;36.34;101148.56;2104193;28;45090;-60
2023/04/06 01:11:32;;;;;;;;;26.00;25.80;;;;;14.61;36.48;101149.50;2102471;27;44849;-60
2023/04/06 01:12:32;;;;;;;;;31.40;30.40;;;;;14.60;36.67;101146.84;2104030;28;45083;-60
2023/04/06 01:13:32;;;;;;;;;22.50;20.75;;;;;14.61;36.37;101148.59;2102939;28;45666;-60
2023/04/06 01:14:33;;;;;;;;;27.25;27.25;;;;;14.60;36.64;101141.50;2096237;28;45008;-61
2023/04/06 01:15:35;;;;;;;;;30.25;28.75;;;;;14.61;36.75;101137.91;2095513;28;44925;-61
2023/04/06 01:16:36;;;;;;;;;26.00;25.20;;;;;14.61;36.47;101140.59;2097046;28;44945;-60
2023/04/06 01:17:36;;;;;;;;;25.80;24.80;;;;;14.61;36.98;101140.59;2099066;28;44912;-61
2023/04/06 01:18:38;;;;;;;;;28.25;27.25;;;;;14.60;36.56;101138.84;2103720;28;44881;-61
2023/04/06 01:19:40;;;;;;;;;29.00;26.40;;;;;14.60;36.91;101133.50;2102515;28;44866;-61
2023/04/06 01:20:40;;;;;;;;;31.00;28.60;;;;;14.59;36.55;101139.75;2103518;28;44804;-61
2023/04/06 01:21:41;;;;;;;;;41.50;35.50;;;;;14.59;36.96;101134.41;2102391;28;44917;-60
2023/04/06 01:22:42;;;;;;;;;42.40;35.60;;;;;14.58;36.78;101135.34;2102807;28;44984;-61
2023/04/06 01:23:45;;;;;;;;;46.25;38.50;;;;;14.59;36.92;101139.75;2100633;27;45073;-62
2023/04/06 01:24:45;;;;;;;;;39.20;32.80;;;;;14.58;36.71;101143.34;2097327;28;44834;-60
2023/04/06 01:25:46;;;;;;;;;33.75;30.00;;;;;14.59;37.17;101139.75;2102886;27;45015;-60
2023/04/06 01:26:46;;;;;;;;;34.50;29.50;;;;;14.58;37.10;101138.88;2105222;27;44968;-61
2023/04/06 01:27:47;;;;;;;;;29.00;28.00;;;;;14.57;37.16;101139.81;2093658;28;45121;-61
2023/04/06 01:28:47;;;;;;;;;31.25;30.00;;;;;14.58;37.03;101138.88;2096259;28;44952;-61
2023/04/06 01:29:47;;;;;;;;;28.00;25.50;;;;;14.57;37.18;101137.13;2100784;28;44760;-61
2023/04/06 01:30:48;;;;;;;;;30.50;27.75;;;;;14.58;37.04;101132.66;2104712;27;45017;-61
2023/04/06 01:31:48;;;;;;;;;32.75;29.50;;;;;14.58;37.29;101138.00;2101340;27;45185;-60
2023/04/06 01:32:48;;;;;;;;;28.75;27.75;;;;;14.58;37.09;101138.88;2097087;28;44944;-62
2023/04/06 01:33:49;;;;;;;;;27.25;26.75;;;;;14.58;37.10;101133.53;2098032;28;44951;-59
2023/04/06 01:34:49;;;;;;;;;26.50;26.50;;;;;14.57;37.09;101137.13;2088275;28;44779;-61
2023/04/06 01:35:50;;;;;;;;;26.50;24.00;;;;;14.57;37.12;101134.47;2102419;27;45604;-61
2023/04/06 01:36:50;;;;;;;;;25.75;25.00;;;;;14.55;37.42;101136.31;2097078;28;44848;-61
2023/04/06 01:37:51;;;;;;;;;23.75;22.00;;;;;14.54;37.30;101134.56;2092929;28;45044;-59
2023/04/06 01:38:51;;;;;;;;;26.75;25.25;;;;;14.54;37.47;101131.03;2107941;27;44997;-60
2023/04/06 01:39:52;;;;;;;;;27.75;25.25;;;;;14.52;37.76;101135.56;2100849;27;44982;-59
2023/04/06 01:40:53;;;;;;;;;29.75;27.50;;;;;14.50;37.55;101142.75;2105204;27;45350;-61
2023/04/06 01:41:53;;;;;;;;;27.00;26.75;;;;;14.49;37.83;101130.31;2103465;27;45011;-60
2023/04/06 01:42:54;;;;;;;;;26.75;25.50;;;;;14.47;38.02;101134.81;2087904;28;45063;-60
2023/04/06 01:43:54;;;;;;;;;23.75;21.75;;;;;14.45;37.88;101134.84;2082161;28;44887;-60
2023/04/06 01:44:55;;;;;;;;;21.50;21.00;;;;;14.44;38.14;101130.44;2098827;27;44872;-60
2023/04/06 01:45:55;;;;;;;;;28.50;23.75;;;;;14.43;37.99;101136.66;2102901;27;44898;-60
2023/04/06 01:46:56;;;;;;;;;23.25;22.75;;;;;14.43;38.39;101136.66;2105929;27;44771;-61
2023/04/06 01:47:56;;;;;;;;;27.00;21.50;;;;;14.42;38.40;101132.25;2100270;28;44832;-60
2023/04/06 01:48:58;;;;;;;;;24.80;24.60;;;;;14.41;38.35;101135.84;2104401;27;45037;-61
2023/04/06 01:49:58;;;;;;;;;24.50;24.50;;;;;14.40;38.66;101126.09;2101498;27;44787;-60
2023/04/06 01:50:59;;;;;;;;;27.00;25.00;;;;;14.39;38.62;101124.34;2098248;28;44934;-59
2023/04/06 01:51:59;;;;;;;;;24.75;24.00;;;;;14.38;38.64;101131.47;2104518;27;44922;-60
2023/04/06 01:53:00;;;;;;;;;25.25;24.00;;;;;14.36;38.66;101125.31;2098756;27;44963;-60
2023/04/06 01:54:00;;;;;;;;;24.25;23.50;;;;;14.36;38.75;101127.13;2101952;27;45067;-62
2023/04/06 01:55:01;;;;;;;;;27.25;25.25;;;;;14.35;39.14;101117.31;2094895;28;45206;-60
2023/04/06 01:56:01;;;;;;;;;29.75;25.50;;;;;14.32;38.94;101118.31;2094770;28;44940;-60
2023/04/06 01:57:01;;;;;;;;;26.50;24.25;;;;;14.32;39.34;101115.63;2106192;27;44947;-61
2023/04/06 01:58:02;;;;;;;;;27.25;26.75;;;;;14.33;39.15;101116.50;2106452;27;45000;-59
2023/04/06 01:59:02;;;;;;;;;26.25;24.75;;;;;14.30;39.38;101114.81;2108014;27;44896;-61
2023/04/06 02:00:03;;;;;;;;;27.75;25.25;;;;;14.30;39.14;101114.81;2102565;27;44968;-60
2023/04/06 02:01:03;;;;;;;;;28.50;26.75;;;;;14.30;39.41;101113.94;2097369;27;45163;-61
2023/04/06 02:02:04;;;;;;;;;27.50;27.50;;;;;14.30;39.73;101113.94;2093566;28;44996;-61
2023/04/06 02:03:04;;;;;;;;;28.50;27.25;;;;;14.30;39.70;101112.16;2095285;28;44925;-60
2023/04/06 02:04:05;;;;;;;;;29.50;28.00;;;;;14.28;39.82;101111.31;2102599;28;44658;-61
2023/04/06 02:05:05;;;;;;;;;23.50;21.00;;;;;14.28;39.63;101105.97;2096535;28;44825;-61
2023/04/06 02:06:06;;;;;;;;;32.00;30.00;;;;;14.29;39.65;101112.19;2096919;28;44943;-60
2023/04/06 02:07:06;;;;;;;;;22.50;22.25;;;;;14.29;39.44;101109.53;2106633;27;45161;-61
2023/04/06 02:08:07;;;;;;;;;26.50;25.00;;;;;14.28;39.51;101105.97;2103377;27;44995;-61
2023/04/06 02:09:08;;;;;;;;;27.00;26.40;;;;;14.28;39.77;101111.31;2096103;28;44851;-60
2023/04/06 02:10:15;;;;;;;;;32.75;27.50;;;;;14.30;39.85;101116.59;2103447;28;45453;-61
2023/04/06 02:11:15;;;;;;;;;33.00;28.20;;;;;14.30;39.99;101113.94;2102814;27;44810;-60
2023/04/06 02:12:15;;;;;;;;;22.00;22.00;;;;;14.28;40.08;101115.78;2102630;27;44787;-60
2023/04/06 02:13:16;;;;;;;;;23.50;23.00;;;;;14.28;39.84;101115.78;2100981;27;44752;-61
2023/04/06 02:14:16;;;;;;;;;25.75;25.75;;;;;14.26;39.90;101112.28;2104167;27;45351;-61
2023/04/06 02:15:16;;;;;;;;;25.25;24.25;;;;;14.25;40.02;101114.09;2100415;28;44743;-60
2023/04/06 02:16:17;;;;;;;;;28.75;25.75;;;;;14.25;40.22;101113.22;2101300;27;45052;-60
2023/04/06 02:17:17;;;;;;;;;25.50;23.00;;;;;14.26;40.16;101117.63;2099865;27;44787;-60
2023/04/06 02:18:18;;;;;;;;;28.50;25.75;;;;;14.24;40.23;101115.00;2103377;28;45188;-60
2023/04/06 02:19:18;;;;;;;;;23.75;21.75;;;;;14.22;39.96;101119.50;2101957;27;44809;-60
2023/04/06 02:20:19;;;;;;;;;27.25;24.00;;;;;14.21;40.34;101119.53;2076632;28;45173;-60
2023/04/06 02:21:20;;;;;;;;;28.25;25.25;;;;;14.19;40.29;101124.06;2077262;28;45032;-60
2023/04/06 02:22:20;;;;;;;;;30.75;28.25;;;;;14.18;40.41;101122.31;2102083;28;44871;-60
2023/04/06 02:23:20;;;;;;;;;25.25;25.00;;;;;14.16;40.25;101129.50;2100935;28;44802;-59
2023/04/06 02:24:21;;;;;;;;;25.50;24.25;;;;;14.13;40.35;101123.34;2100303;27;44961;-60
2023/04/06 02:25:21;;;;;;;;;33.00;29.75;;;;;14.12;40.53;101113.59;2100318;27;44937;-61
2023/04/06 02:26:22;;;;;;;;;27.75;27.00;;;;;14.12;40.53;101113.59;2104173;28;44833;-61
2023/04/06 02:27:22;;;;;;;;;27.50;27.50;;;;;14.12;40.59;101110.03;2101539;27;45132;-59
2023/04/06 02:28:23;;;;;;;;;26.00;25.25;;;;;14.13;40.51;101114.47;2104597;27;44893;-59
2023/04/06 02:29:23;;;;;;;;;27.50;25.00;;;;;14.12;40.82;101110.03;2104142;27;44878;-60
2023/04/06 02:30:23;;;;;;;;;31.75;25.75;;;;;14.13;40.47;101109.13;2103093;27;44886;-61
2023/04/06 02:31:24;;;;;;;;;27.50;26.75;;;;;14.13;40.79;101109.13;2094143;28;45159;-59
2023/04/06 02:32:24;;;;;;;;;32.75;28.75;;;;;14.12;40.60;101105.56;2096203;28;45516;-60
2023/04/06 02:33:24;;;;;;;;;28.50;26.25;;;;;14.12;40.43;101097.56;2091717;28;44973;-59
2023/04/06 02:34:25;;;;;;;;;29.00;28.25;;;;;14.13;40.56;101096.66;2095436;28;44842;-59
2023/04/06 02:35:25;;;;;;;;;25.00;25.00;;;;;14.12;40.57;101089.56;2095220;28;46470;-60
2023/04/06 02:36:25;;;;;;;;;29.50;26.50;;;;;14.11;40.96;101092.28;2080844;28;44964;-60
2023/04/06 02:37:26;;;;;;;;;29.00;26.00;;;;;14.11;40.71;101092.28;2094256;28;44948;-60
2023/04/06 02:38:26;;;;;;;;;31.75;28.50;;;;;14.10;40.60;101087.84;2095962;28;44813;-60
2023/04/06 02:39:27;;;;;;;;;30.50;27.50;;;;;14.09;40.68;101094.97;2096147;28;45002;-60
2023/04/06 02:40:27;;;;;;;;;27.75;26.50;;;;;14.10;40.75;101086.06;2093427;28;45555;-60
2023/04/06 02:41:27;;;;;;;;;25.00;22.00;;;;;14.11;40.79;101092.28;2093997;28;45004;-60
2023/04/06 02:42:28;;;;;;;;;26.25;25.50;;;;;14.12;40.84;101094.03;2103738;28;45051;-59
2023/04/06 02:43:28;;;;;;;;;28.50;26.00;;;;;14.11;40.91;101087.81;2098662;27;45151;-59
2023/04/06 02:44:29;;;;;;;;;30.00;24.75;;;;;14.12;41.11;101078.00;2100221;28;45065;-60
2023/04/06 02:45:29;;;;;;;;;24.80;24.00;;;;;14.13;41.02;101088.66;2102277;28;44850;-60
2023/04/06 02:46:30;;;;;;;;;25.50;25.25;;;;;14.12;40.94;101086.91;2097244;28;45095;-60
2023/04/06 02:47:30;;;;;;;;;24.00;24.00;;;;;14.14;41.00;101090.38;2100285;28;44988;-59
2023/04/06 02:48:31;;;;;;;;;29.25;28.50;;;;;14.15;40.71;101091.25;2098173;28;45273;-61
2023/04/06 02:49:31;;;;;;;;;26.50;23.75;;;;;14.14;40.72;101085.06;2100910;28;44992;-59
2023/04/06 02:50:31;;;;;;;;;27.75;26.00;;;;;14.16;40.99;101078.78;2103481;28;44957;-60
2023/04/06 02:51:32;;;;;;;;;28.00;27.25;;;;;14.17;41.00;101080.53;2102721;28;45061;-60
2023/04/06 02:52:33;;;;;;;;;21.80;20.00;;;;;14.18;40.75;101082.28;2095693;28;45026;-61
2023/04/06 02:53:33;;;;;;;;;30.50;28.75;;;;;14.18;40.97;101082.28;2096120;28;45095;-61
2023/04/06 02:54:34;;;;;;;;;17.25;17.25;;;;;14.17;40.59;101072.53;2098344;28;44940;-61
2023/04/06 02:55:34;;;;;;;;;24.75;23.50;;;;;14.18;40.64;101076.94;2091805;28;45031;-61
2023/04/06 02:56:35;;;;;;;;;34.00;27.25;;;;;14.17;41.03;101068.06;2095066;28;44845;-60
2023/04/06 02:57:35;;;;;;;;;26.50;26.00;;;;;14.18;40.87;101071.59;2096894;28;44913;-61
2023/04/06 02:58:36;;;;;;;;;24.75;24.00;;;;;14.18;40.90;101069.81;2094877;28;45106;-60
2023/04/06 02:59:37;;;;;;;;;29.60;26.80;;;;;14.19;40.67;101071.56;2095065;28;44877;-59
2023/04/06 03:00:37;;;;;;;;;23.25;22.75;;;;;14.19;40.74;101076.88;2094989;28;44798;-62
2023/04/06 03:01:37;;;;;;;;;25.50;25.50;;;;;14.19;41.00;101078.69;2102273;28;45292;-60
2023/04/06 03:02:38;;;;;;;;;25.50;24.75;;;;;14.19;40.98;101076.88;2103299;28;44839;-59
2023/04/06 03:03:38;;;;;;;;;26.75;25.25;;;;;14.20;41.05;101078.63;2098873;28;45187;-59
2023/04/06 03:04:38;;;;;;;;;29.25;26.25;;;;;14.20;40.56;101083.97;2103091;28;45139;-60
2023/04/06 03:05:39;;;;;;;;;28.00;26.50;;;;;14.21;40.90;101082.19;2099121;28;45788;-60
2023/04/06 03:06:40;;;;;;;;;26.25;23.25;;;;;14.20;41.14;101083.97;2103546;28;45164;-61
2023/04/06 03:07:40;;;;;;;;;22.50;22.00;;;;;14.20;41.02;101088.44;2101603;28;44952;-61
2023/04/06 03:08:40;;;;;;;;;29.25;27.25;;;;;14.19;40.88;101097.38;2094517;28;45277;-61
2023/04/06 03:09:41;;;;;;;;;28.25;27.50;;;;;14.17;40.68;101091.22;2093179;28;45050;-62
2023/04/06 03:10:42;;;;;;;;;26.60;25.20;;;;;14.15;41.17;101096.59;2095154;28;44944;-61
2023/04/06 03:11:42;;;;;;;;;23.75;23.50;;;;;14.12;41.03;101091.38;2093419;28;45058;-60
2023/04/06 03:12:43;;;;;;;;;24.50;24.25;;;;;14.11;41.10;101095.81;2085937;28;44915;-61
2023/04/06 03:13:43;;;;;;;;;25.00;22.75;;;;;14.11;41.02;101092.28;2080604;28;44920;-60
2023/04/06 03:14:44;;;;;;;;;29.00;25.50;;;;;14.09;41.24;101089.63;2104182;28;44791;-61
2023/04/06 03:15:44;;;;;;;;;26.00;25.25;;;;;14.07;41.22;101088.81;2099588;28;45100;-60
2023/04/06 03:16:44;;;;;;;;;24.00;23.75;;;;;14.06;41.14;101087.06;2098176;28;44844;-60
2023/04/06 03:17:45;;;;;;;;;23.75;23.25;;;;;14.04;41.24;101094.25;2102487;28;44853;-60
2023/04/06 03:18:46;;;;;;;;;25.75;25.75;;;;;14.03;41.21;101095.16;2103881;28;44833;-60
2023/04/06 03:19:47;;;;;;;;;24.20;23.40;;;;;14.02;41.10;101104.09;2101338;28;44829;-62
2023/04/06 03:20:47;;;;;;;;;28.25;24.50;;;;;14.01;40.90;101101.47;2096124;28;45435;-61
2023/04/06 03:21:48;;;;;;;;;26.50;24.00;;;;;14.00;41.12;101099.72;2102525;27;45004;-62
2023/04/06 03:22:48;;;;;;;;;25.25;23.75;;;;;14.00;41.18;101103.28;2093866;28;45430;-60
2023/04/06 03:23:51;;;;;;;;;27.75;26.00;;;;;14.00;41.21;101094.41;2095790;28;44986;-60
2023/04/06 03:24:52;;;;;;;;;27.00;26.20;;;;;14.01;41.25;101082.81;2105262;28;44948;-61
2023/04/06 03:25:52;;;;;;;;;28.00;24.25;;;;;14.02;41.09;101084.53;2103398;27;44826;-61
2023/04/06 03:26:52;;;;;;;;;25.75;25.50;;;;;14.04;41.58;101072.91;2105172;27;44957;-61
2023/04/06 03:27:53;;;;;;;;;29.50;27.25;;;;;14.05;41.27;101074.66;2104019;28;45118;-62
2023/04/06 03:28:53;;;;;;;;;26.00;23.00;;;;;14.06;41.29;101072.84;2104392;28;44927;-61
2023/04/06 03:29:54;;;;;;;;;24.75;23.00;;;;;14.05;41.49;101077.31;2101468;28;45044;-60
2023/04/06 03:30:54;;;;;;;;;29.00;25.25;;;;;14.05;41.30;101077.31;2104368;27;44870;-63
2023/04/06 03:31:55;;;;;;;;;24.50;22.50;;;;;14.05;41.38;101074.66;2103385;27;44943;-60
2023/04/06 03:32:55;;;;;;;;;28.00;27.00;;;;;14.07;41.37;101077.25;2089623;28;45010;-60
2023/04/06 03:33:55;;;;;;;;;23.50;22.75;;;;;14.07;41.50;101088.81;2095949;28;45022;-60
2023/04/06 03:34:56;;;;;;;;;26.50;26.00;;;;;14.08;41.59;101084.34;2097104;28;44912;-62
2023/04/06 03:35:56;;;;;;;;;28.50;23.00;;;;;14.07;41.50;101080.81;2094749;28;44910;-62
2023/04/06 03:36:56;;;;;;;;;25.75;22.00;;;;;14.06;41.51;101087.06;2105869;27;44949;-61
2023/04/06 03:37:57;;;;;;;;;27.25;26.00;;;;;14.06;41.51;101088.84;2102779;28;44837;-61
2023/04/06 03:38:57;;;;;;;;;23.00;20.00;;;;;14.06;41.59;101091.53;2104219;27;44766;-61
2023/04/06 03:39:58;;;;;;;;;27.25;25.75;;;;;14.04;41.58;101088.91;2093303;28;45069;-61
2023/04/06 03:40:58;;;;;;;;;23.00;22.75;;;;;14.03;41.49;101087.16;2095941;28;44921;-60
2023/04/06 03:41:58;;;;;;;;;26.25;25.00;;;;;14.03;41.57;101086.28;2102560;27;44893;-59
2023/04/06 03:42:59;;;;;;;;;28.00;24.50;;;;;14.02;41.56;101088.09;2105943;27;44873;-61
2023/04/06 03:43:59;;;;;;;;;24.50;23.00;;;;;14.00;41.28;101076.59;2103931;28;44983;-63
2023/04/06 03:45:00;;;;;;;;;28.00;23.50;;;;;14.01;41.46;101085.47;2104009;27;44924;-62
2023/04/06 03:46:00;;;;;;;;;21.25;19.50;;;;;13.99;41.40;101084.66;2102540;28;44785;-61
2023/04/06 03:47:02;;;;;;;;;23.50;23.25;;;;;13.98;41.52;101080.22;2103747;27;45100;-62
2023/04/06 03:48:02;;;;;;;;;24.80;22.00;;;;;13.97;41.28;101078.44;2103481;27;44900;-63
2023/04/06 03:49:03;;;;;;;;;19.00;19.00;;;;;13.96;41.45;101084.72;2104816;28;44774;-62
2023/04/06 03:50:03;;;;;;;;;25.25;25.25;;;;;13.95;41.56;101082.97;2102955;27;45074;-62
2023/04/06 03:51:04;;;;;;;;;25.00;23.25;;;;;13.95;41.57;101074.97;2099975;27;45038;-61
2023/04/06 03:52:04;;;;;;;;;24.50;24.50;;;;;13.95;41.55;101074.97;2104467;28;44976;-61
2023/04/06 03:53:05;;;;;;;;;26.00;22.75;;;;;13.97;41.49;101070.44;2106534;27;45310;-60
2023/04/06 03:54:05;;;;;;;;;26.25;24.00;;;;;13.97;41.49;101071.31;2104597;28;46372;-61
2023/04/06 03:55:06;;;;;;;;;22.25;21.75;;;;;14.00;41.25;101073.94;2109617;27;45090;-61
2023/04/06 03:56:07;;;;;;;;;21.60;21.60;;;;;14.01;41.59;101072.13;2106451;27;44900;-61
2023/04/06 03:57:07;;;;;;;;;26.25;24.25;;;;;14.02;41.66;101068.53;2109680;27;45115;-61
2023/04/06 03:58:07;;;;;;;;;26.50;25.25;;;;;14.03;41.20;101080.94;2100688;27;44842;-60
2023/04/06 03:59:08;;;;;;;;;25.25;23.25;;;;;14.03;41.57;101081.81;2099497;27;45519;-62
2023/04/06 04:00:09;;;;;;;;;28.50;25.75;;;;;14.02;41.32;101077.41;2103254;28;44945;-61
2023/04/06 04:01:09;;;;;;;;;26.60;23.80;;;;;14.02;41.56;101073.88;2103879;28;44893;-61
2023/04/06 04:02:10;;;;;;;;;27.25;23.00;;;;;14.02;41.40;101076.53;2103550;28;44904;-62
2023/04/06 04:03:10;;;;;;;;;25.25;22.50;;;;;14.02;41.31;101081.88;2102388;28;45695;-62
2023/04/06 04:04:11;;;;;;;;;22.25;22.25;;;;;14.02;41.21;101085.41;2104215;28;44916;-62
2023/04/06 04:05:11;;;;;;;;;26.00;24.00;;;;;14.02;41.64;101077.41;2103434;28;45056;-61
2023/04/06 04:06:11;;;;;;;;;26.00;24.25;;;;;14.03;41.33;101078.28;2100641;28;44914;-62
2023/04/06 04:07:12;;;;;;;;;24.50;22.25;;;;;14.03;41.51;101079.16;2096795;28;44995;-63
2023/04/06 04:08:12;;;;;;;;;24.75;23.75;;;;;14.06;41.52;101080.84;2101151;28;44834;-62
2023/04/06 04:09:12;;;;;;;;;28.25;25.75;;;;;14.06;41.37;101070.19;2099593;28;44925;-62
2023/04/06 04:10:13;;;;;;;;;27.50;25.75;;;;;14.07;41.64;101079.94;2104262;28;45086;-61
2023/04/06 04:11:15;;;;;;;;;26.00;24.00;;;;;14.08;41.42;101076.34;2103988;28;44988;-60
2023/04/06 04:12:16;;;;;;;;;26.00;24.80;;;;;14.08;41.34;101073.66;2096422;28;44955;-62
2023/04/06 04:13:17;;;;;;;;;23.40;21.40;;;;;14.09;41.20;101075.41;2086773;28;44917;-64
2023/04/06 04:14:17;;;;;;;;;23.50;22.50;;;;;14.11;41.47;101076.28;2096408;28;44924;-64
2023/04/06 04:15:17;;;;;;;;;24.00;22.25;;;;;14.12;41.28;101065.53;2103936;28;45186;-60
2023/04/06 04:16:18;;;;;;;;;25.00;23.75;;;;;14.13;41.54;101077.09;2101000;28;45157;-62
2023/04/06 04:17:18;;;;;;;;;25.50;24.00;;;;;14.15;41.33;101080.59;2099635;28;44813;-62
2023/04/06 04:18:19;;;;;;;;;23.50;22.50;;;;;14.15;41.56;101072.56;2104093;28;44835;-60
2023/04/06 04:19:19;;;;;;;;;24.00;23.25;;;;;14.15;41.47;101075.25;2103534;28;45032;-60
2023/04/06 04:20:19;;;;;;;;;27.00;24.75;;;;;14.16;41.22;101076.13;2100503;28;44992;-59
2023/04/06 04:21:20;;;;;;;;;21.75;21.00;;;;;14.16;41.31;101081.47;2103360;28;45075;-62
2023/04/06 04:22:20;;;;;;;;;23.00;22.50;;;;;14.14;41.43;101087.72;2094585;28;45270;-62
2023/04/06 04:23:20;;;;;;;;;23.50;21.75;;;;;14.11;41.15;101078.94;2092144;28;44995;-62
2023/04/06 04:24:21;;;;;;;;;22.75;22.75;;;;;14.11;41.19;101086.94;2100403;27;45018;-62
2023/04/06 04:25:23;;;;;;;;;25.00;22.00;;;;;14.10;41.27;101079.84;2100518;27;45236;-61
2023/04/06 04:26:23;;;;;;;;;24.60;23.40;;;;;14.09;41.14;101086.09;2104133;28;44964;-61
2023/04/06 04:27:23;;;;;;;;;23.50;22.50;;;;;14.08;41.38;101079.00;2102928;27;44845;-64
2023/04/06 04:28:24;;;;;;;;;27.00;25.00;;;;;14.08;41.45;101087.00;2078794;28;45137;-63
2023/04/06 04:29:24;;;;;;;;;26.50;24.50;;;;;14.07;41.34;101080.81;2074457;28;44857;-61
2023/04/06 04:30:25;;;;;;;;;21.75;18.75;;;;;14.06;41.20;101080.84;2086431;28;45106;-60
2023/04/06 04:31:25;;;;;;;;;22.25;21.25;;;;;14.05;41.15;101079.09;2078096;28;44909;-62
2023/04/06 04:32:27;;;;;;;;;26.00;24.00;;;;;14.05;41.33;101076.44;2079469;28;45607;-63
2023/04/06 04:33:27;;;;;;;;;23.20;22.00;;;;;14.05;41.53;101079.09;2085706;28;44971;-61
2023/04/06 04:34:28;;;;;;;;;24.75;24.75;;;;;14.06;41.24;101075.50;2086287;28;44849;-62
2023/04/06 04:35:28;;;;;;;;;27.50;25.75;;;;;14.05;41.60;101077.31;2087259;28;45020;-61